sensor_id;sensor_type;location;lat;lon;timestamp;P1;durP1;ratioP1;P2;durP2;ratioP2
34142;SDS011;20419;10.658;106.724;2022-10-04T00:02:16;9.07;;;5.97;;
34142;SDS011;20419;10.658;106.724;2022-10-04T00:07:15;9.63;;;5.95;;
34142;SDS011;20419;10.658;106.724;2022-10-04T00:09:48;12.20;;;6.25;;
34142;SDS011;20419;10.658;106.724;2022-10-04T00:12:19;8.45;;;6.10;;
34142;SDS011;20419;10.658;106.724;2022-10-04T00:14:47;11.77;;;6.30;;
34142;SDS011;20419;10.658;106.724;2022-10-04T00:17:19;10.20;;;6.32;;
34142;SDS011;20419;10.658;106.724;2022-10-04T00:19:47;11.10;;;6.80;;
34142;SDS011;20419;10.658;106.724;2022-10-04T00:22:15;9.85;;;6.57;;
34142;SDS011;20419;10.658;106.724;2022-10-04T00:27:28;10.75;;;6.22;;
34142;SDS011;20419;10.658;106.724;2022-10-04T00:32:28;10.93;;;6.13;;
34142;SDS011;20419;10.658;106.724;2022-10-04T00:34:56;11.65;;;6.38;;
34142;SDS011;20419;10.658;106.724;2022-10-04T00:37:23;11.55;;;6.45;;
34142;SDS011;20419;10.658;106.724;2022-10-04T00:39:58;14.55;;;6.53;;
34142;SDS011;20419;10.658;106.724;2022-10-04T00:50:19;9.32;;;6.13;;
34142;SDS011;20419;10.658;106.724;2022-10-04T00:52:49;8.77;;;6.22;;
34142;SDS011;20419;10.658;106.724;2022-10-04T00:57:58;11.35;;;6.43;;
34142;SDS011;20419;10.658;106.724;2022-10-04T01:00:26;9.40;;;6.00;;
34142;SDS011;20419;10.658;106.724;2022-10-04T01:02:59;10.30;;;6.32;;
34142;SDS011;20419;10.658;106.724;2022-10-04T01:05:29;10.50;;;6.00;;
34142;SDS011;20419;10.658;106.724;2022-10-04T01:08:11;12.02;;;5.63;;
34142;SDS011;20419;10.658;106.724;2022-10-04T01:10:41;9.85;;;6.45;;
34142;SDS011;20419;10.658;106.724;2022-10-04T01:15:55;12.88;;;6.63;;
34142;SDS011;20419;10.658;106.724;2022-10-04T01:20:57;11.38;;;6.68;;
34142;SDS011;20419;10.658;106.724;2022-10-04T01:31:33;10.35;;;6.68;;
34142;SDS011;20419;10.658;106.724;2022-10-04T01:34:01;9.80;;;6.07;;
34142;SDS011;20419;10.658;106.724;2022-10-04T01:36:29;12.30;;;6.07;;
34142;SDS011;20419;10.658;106.724;2022-10-04T01:38:56;9.52;;;5.50;;
34142;SDS011;20419;10.658;106.724;2022-10-04T01:41:28;10.15;;;5.68;;
34142;SDS011;20419;10.658;106.724;2022-10-04T01:43:57;9.73;;;6.30;;
34142;SDS011;20419;10.658;106.724;2022-10-04T01:46:26;9.60;;;6.00;;
34142;SDS011;20419;10.658;106.724;2022-10-04T01:48:54;8.82;;;6.32;;
34142;SDS011;20419;10.658;106.724;2022-10-04T01:51:29;8.90;;;6.07;;
34142;SDS011;20419;10.658;106.724;2022-10-04T01:54:16;9.82;;;5.57;;
34142;SDS011;20419;10.658;106.724;2022-10-04T01:56:47;12.30;;;5.95;;
34142;SDS011;20419;10.658;106.724;2022-10-04T01:59:18;9.85;;;6.05;;
34142;SDS011;20419;10.658;106.724;2022-10-04T02:01:51;10.40;;;6.15;;
34142;SDS011;20419;10.658;106.724;2022-10-04T02:04:22;7.93;;;5.75;;
34142;SDS011;20419;10.658;106.724;2022-10-04T02:06:50;9.00;;;5.63;;
34142;SDS011;20419;10.658;106.724;2022-10-04T02:09:19;10.38;;;5.93;;
34142;SDS011;20419;10.658;106.724;2022-10-04T02:11:48;7.50;;;4.93;;
34142;SDS011;20419;10.658;106.724;2022-10-04T02:14:17;8.18;;;5.55;;
34142;SDS011;20419;10.658;106.724;2022-10-04T02:16:45;8.48;;;5.68;;
34142;SDS011;20419;10.658;106.724;2022-10-04T02:19:16;9.30;;;5.93;;
34142;SDS011;20419;10.658;106.724;2022-10-04T02:21:44;10.52;;;6.53;;
34142;SDS011;20419;10.658;106.724;2022-10-04T02:24:12;9.00;;;5.97;;
34142;SDS011;20419;10.658;106.724;2022-10-04T02:26:39;8.93;;;6.13;;
34142;SDS011;20419;10.658;106.724;2022-10-04T02:29:08;9.10;;;6.35;;
34142;SDS011;20419;10.658;106.724;2022-10-04T02:31:36;8.45;;;5.75;;
34142;SDS011;20419;10.658;106.724;2022-10-04T02:34:21;9.02;;;6.20;;
34142;SDS011;20419;10.658;106.724;2022-10-04T02:36:48;9.60;;;6.60;;
34142;SDS011;20419;10.658;106.724;2022-10-04T02:39:26;10.35;;;6.30;;
34142;SDS011;20419;10.658;106.724;2022-10-04T02:41:55;7.75;;;6.07;;
34142;SDS011;20419;10.658;106.724;2022-10-04T02:44:28;8.50;;;5.82;;
34142;SDS011;20419;10.658;106.724;2022-10-04T02:47:06;9.20;;;6.38;;
34142;SDS011;20419;10.658;106.724;2022-10-04T02:49:42;8.18;;;5.85;;
34142;SDS011;20419;10.658;106.724;2022-10-04T02:52:11;9.15;;;5.80;;
34142;SDS011;20419;10.658;106.724;2022-10-04T02:57:29;9.27;;;6.40;;
34142;SDS011;20419;10.658;106.724;2022-10-04T03:00:13;8.35;;;5.72;;
34142;SDS011;20419;10.658;106.724;2022-10-04T03:05:37;8.18;;;5.68;;
34142;SDS011;20419;10.658;106.724;2022-10-04T03:08:05;7.78;;;5.35;;
34142;SDS011;20419;10.658;106.724;2022-10-04T03:10:32;7.50;;;5.47;;
34142;SDS011;20419;10.658;106.724;2022-10-04T03:13:00;9.85;;;6.53;;
34142;SDS011;20419;10.658;106.724;2022-10-04T03:15:27;8.93;;;5.55;;
34142;SDS011;20419;10.658;106.724;2022-10-04T03:17:54;7.47;;;5.68;;
34142;SDS011;20419;10.658;106.724;2022-10-04T03:20:21;7.60;;;5.13;;
34142;SDS011;20419;10.658;106.724;2022-10-04T03:22:50;8.77;;;6.15;;
34142;SDS011;20419;10.658;106.724;2022-10-04T03:25:24;7.47;;;5.63;;
34142;SDS011;20419;10.658;106.724;2022-10-04T03:27:54;8.55;;;5.32;;
34142;SDS011;20419;10.658;106.724;2022-10-04T03:30:22;8.77;;;6.15;;
34142;SDS011;20419;10.658;106.724;2022-10-04T03:32:49;10.25;;;6.00;;
34142;SDS011;20419;10.658;106.724;2022-10-04T03:35:31;8.32;;;5.68;;
34142;SDS011;20419;10.658;106.724;2022-10-04T03:37:58;9.55;;;5.90;;
34142;SDS011;20419;10.658;106.724;2022-10-04T03:42:55;8.93;;;5.68;;
34142;SDS011;20419;10.658;106.724;2022-10-04T03:45:23;8.20;;;5.20;;
34142;SDS011;20419;10.658;106.724;2022-10-04T03:47:52;9.55;;;5.70;;
34142;SDS011;20419;10.658;106.724;2022-10-04T03:50:25;7.88;;;5.85;;
34142;SDS011;20419;10.658;106.724;2022-10-04T03:52:53;8.27;;;5.40;;
34142;SDS011;20419;10.658;106.724;2022-10-04T03:55:22;8.93;;;6.10;;
34142;SDS011;20419;10.658;106.724;2022-10-04T03:57:51;8.85;;;5.95;;
34142;SDS011;20419;10.658;106.724;2022-10-04T04:00:18;7.72;;;5.97;;
34142;SDS011;20419;10.658;106.724;2022-10-04T04:02:49;8.93;;;5.90;;
34142;SDS011;20419;10.658;106.724;2022-10-04T04:07:59;7.40;;;5.53;;
34142;SDS011;20419;10.658;106.724;2022-10-04T04:10:30;7.72;;;5.20;;
34142;SDS011;20419;10.658;106.724;2022-10-04T04:12:58;8.48;;;5.65;;
34142;SDS011;20419;10.658;106.724;2022-10-04T04:15:27;8.00;;;5.93;;
34142;SDS011;20419;10.658;106.724;2022-10-04T04:17:55;6.97;;;5.57;;
34142;SDS011;20419;10.658;106.724;2022-10-04T04:23:00;7.55;;;5.57;;
34142;SDS011;20419;10.658;106.724;2022-10-04T04:25:28;7.13;;;5.57;;
34142;SDS011;20419;10.658;106.724;2022-10-04T04:28:39;7.40;;;5.38;;
34142;SDS011;20419;10.658;106.724;2022-10-04T04:30:47;8.05;;;5.18;;
34142;SDS011;20419;10.658;106.724;2022-10-04T04:33:25;8.43;;;5.68;;
34142;SDS011;20419;10.658;106.724;2022-10-04T04:35:55;9.65;;;5.90;;
34142;SDS011;20419;10.658;106.724;2022-10-04T04:38:23;7.57;;;5.10;;
34142;SDS011;20419;10.658;106.724;2022-10-04T04:43:20;6.45;;;4.80;;
34142;SDS011;20419;10.658;106.724;2022-10-04T04:45:50;6.28;;;4.85;;
34142;SDS011;20419;10.658;106.724;2022-10-04T04:48:17;9.27;;;5.47;;
34142;SDS011;20419;10.658;106.724;2022-10-04T04:51:02;7.47;;;5.35;;
34142;SDS011;20419;10.658;106.724;2022-10-04T04:53:29;7.22;;;5.05;;
34142;SDS011;20419;10.658;106.724;2022-10-04T04:56:00;7.55;;;5.57;;
34142;SDS011;20419;10.658;106.724;2022-10-04T04:58:40;8.15;;;5.57;;
34142;SDS011;20419;10.658;106.724;2022-10-04T05:01:53;8.10;;;5.45;;
34142;SDS011;20419;10.658;106.724;2022-10-04T05:04:22;6.80;;;4.97;;
34142;SDS011;20419;10.658;106.724;2022-10-04T05:07:02;7.68;;;5.25;;
34142;SDS011;20419;10.658;106.724;2022-10-04T05:12:19;6.93;;;5.00;;
34142;SDS011;20419;10.658;106.724;2022-10-04T05:14:45;6.72;;;5.25;;
34142;SDS011;20419;10.658;106.724;2022-10-04T05:17:32;6.97;;;5.38;;
34142;SDS011;20419;10.658;106.724;2022-10-04T05:20:00;9.02;;;5.85;;
34142;SDS011;20419;10.658;106.724;2022-10-04T05:22:28;7.22;;;5.28;;
34142;SDS011;20419;10.658;106.724;2022-10-04T05:25:00;7.22;;;5.20;;
34142;SDS011;20419;10.658;106.724;2022-10-04T05:34:58;6.68;;;5.15;;
34142;SDS011;20419;10.658;106.724;2022-10-04T05:44:51;7.18;;;5.38;;
34142;SDS011;20419;10.658;106.724;2022-10-04T05:47:20;7.60;;;5.75;;
34142;SDS011;20419;10.658;106.724;2022-10-04T05:49:54;7.43;;;5.38;;
34142;SDS011;20419;10.658;106.724;2022-10-04T05:52:37;7.18;;;5.50;;
34142;SDS011;20419;10.658;106.724;2022-10-04T05:55:16;6.72;;;5.43;;
34142;SDS011;20419;10.658;106.724;2022-10-04T06:00:19;6.40;;;5.55;;
34142;SDS011;20419;10.658;106.724;2022-10-04T06:08:06;8.13;;;5.65;;
34142;SDS011;20419;10.658;106.724;2022-10-04T06:10:41;7.45;;;5.70;;
34142;SDS011;20419;10.658;106.724;2022-10-04T06:16:01;7.65;;;5.60;;
34142;SDS011;20419;10.658;106.724;2022-10-04T06:21:36;6.18;;;4.90;;
34142;SDS011;20419;10.658;106.724;2022-10-04T06:24:02;6.07;;;4.85;;
34142;SDS011;20419;10.658;106.724;2022-10-04T06:26:37;6.93;;;5.47;;
34142;SDS011;20419;10.658;106.724;2022-10-04T06:29:17;7.32;;;5.50;;
34142;SDS011;20419;10.658;106.724;2022-10-04T06:34:35;6.28;;;5.22;;
34142;SDS011;20419;10.658;106.724;2022-10-04T06:44:52;6.15;;;4.93;;
34142;SDS011;20419;10.658;106.724;2022-10-04T06:47:47;7.53;;;5.53;;
34142;SDS011;20419;10.658;106.724;2022-10-04T06:52:49;6.85;;;5.40;;
34142;SDS011;20419;10.658;106.724;2022-10-04T07:03:44;7.25;;;5.35;;
34142;SDS011;20419;10.658;106.724;2022-10-04T07:06:11;7.65;;;5.03;;
34142;SDS011;20419;10.658;106.724;2022-10-04T07:08:40;6.47;;;5.05;;
34142;SDS011;20419;10.658;106.724;2022-10-04T07:11:13;7.10;;;5.18;;
34142;SDS011;20419;10.658;106.724;2022-10-04T07:21:23;7.28;;;5.78;;
34142;SDS011;20419;10.658;106.724;2022-10-04T07:23:52;6.63;;;4.72;;
34142;SDS011;20419;10.658;106.724;2022-10-04T07:28:48;5.85;;;4.55;;
34142;SDS011;20419;10.658;106.724;2022-10-04T07:31:35;7.45;;;5.72;;
34142;SDS011;20419;10.658;106.724;2022-10-04T07:34:08;7.13;;;5.38;;
34142;SDS011;20419;10.658;106.724;2022-10-04T07:39:10;7.18;;;5.75;;
34142;SDS011;20419;10.658;106.724;2022-10-04T07:41:42;6.65;;;4.97;;
34142;SDS011;20419;10.658;106.724;2022-10-04T07:49:20;7.35;;;6.15;;
34142;SDS011;20419;10.658;106.724;2022-10-04T08:00:04;7.07;;;4.97;;
34142;SDS011;20419;10.658;106.724;2022-10-04T08:05:22;6.82;;;5.18;;
34142;SDS011;20419;10.658;106.724;2022-10-04T08:13:18;6.82;;;5.28;;
34142;SDS011;20419;10.658;106.724;2022-10-04T08:15:48;8.60;;;5.40;;
34142;SDS011;20419;10.658;106.724;2022-10-04T08:18:37;7.78;;;5.40;;
34142;SDS011;20419;10.658;106.724;2022-10-04T08:21:19;6.07;;;5.15;;
34142;SDS011;20419;10.658;106.724;2022-10-04T08:26:51;6.20;;;5.55;;
34142;SDS011;20419;10.658;106.724;2022-10-04T08:29:25;7.22;;;5.95;;
34142;SDS011;20419;10.658;106.724;2022-10-04T08:35:26;5.75;;;4.65;;
34142;SDS011;20419;10.658;106.724;2022-10-04T09:02:23;6.55;;;4.78;;
34142;SDS011;20419;10.658;106.724;2022-10-04T09:20:59;6.10;;;4.70;;
34142;SDS011;20419;10.658;106.724;2022-10-04T09:32:02;6.65;;;4.82;;
34142;SDS011;20419;10.658;106.724;2022-10-04T09:41:46;5.78;;;4.43;;
34142;SDS011;20419;10.658;106.724;2022-10-04T09:55:23;6.32;;;4.30;;
34142;SDS011;20419;10.658;106.724;2022-10-04T10:00:27;6.18;;;4.15;;
34142;SDS011;20419;10.658;106.724;2022-10-04T10:16:21;6.53;;;4.68;;
34142;SDS011;20419;10.658;106.724;2022-10-04T10:21:46;5.50;;;3.92;;
34142;SDS011;20419;10.658;106.724;2022-10-04T10:29:36;5.50;;;4.13;;
34142;SDS011;20419;10.658;106.724;2022-10-04T10:40:24;5.45;;;4.15;;
34142;SDS011;20419;10.658;106.724;2022-10-04T10:51:15;5.60;;;4.00;;
34142;SDS011;20419;10.658;106.724;2022-10-04T11:20:52;5.95;;;4.10;;
34142;SDS011;20419;10.658;106.724;2022-10-04T11:23:48;6.00;;;4.00;;
34142;SDS011;20419;10.658;106.724;2022-10-04T11:26:29;7.72;;;4.20;;
34142;SDS011;20419;10.658;106.724;2022-10-04T11:37:00;6.00;;;3.70;;
34142;SDS011;20419;10.658;106.724;2022-10-04T12:00:06;7.70;;;4.03;;
34142;SDS011;20419;10.658;106.724;2022-10-04T12:05:57;5.63;;;3.85;;
34142;SDS011;20419;10.658;106.724;2022-10-04T12:08:32;7.03;;;4.15;;
34142;SDS011;20419;10.658;106.724;2022-10-04T12:16:26;4.90;;;3.55;;
34142;SDS011;20419;10.658;106.724;2022-10-04T12:30:50;6.20;;;3.73;;
34142;SDS011;20419;10.658;106.724;2022-10-04T12:33:30;6.05;;;4.45;;
34142;SDS011;20419;10.658;106.724;2022-10-04T12:54:42;5.22;;;3.80;;
34142;SDS011;20419;10.658;106.724;2022-10-04T12:57:13;5.90;;;4.07;;
34142;SDS011;20419;10.658;106.724;2022-10-04T13:04:58;5.90;;;3.85;;
34142;SDS011;20419;10.658;106.724;2022-10-04T13:07:37;5.78;;;3.58;;
34142;SDS011;20419;10.658;106.724;2022-10-04T13:49:21;4.82;;;3.20;;
34142;SDS011;20419;10.658;106.724;2022-10-04T13:55:14;5.47;;;3.47;;
34142;SDS011;20419;10.658;106.724;2022-10-04T14:01:05;4.68;;;3.25;;
34142;SDS011;20419;10.658;106.724;2022-10-04T14:29:05;5.28;;;3.60;;
34142;SDS011;20419;10.658;106.724;2022-10-04T14:45:53;5.95;;;3.58;;
34142;SDS011;20419;10.658;106.724;2022-10-04T14:48:24;4.60;;;3.10;;
34142;SDS011;20419;10.658;106.724;2022-10-04T15:02:12;4.55;;;3.00;;
34142;SDS011;20419;10.658;106.724;2022-10-04T15:09:53;4.43;;;3.50;;
34142;SDS011;20419;10.658;106.724;2022-10-04T15:15:04;4.00;;;2.65;;
34142;SDS011;20419;10.658;106.724;2022-10-04T15:20:20;4.82;;;3.10;;
34142;SDS011;20419;10.658;106.724;2022-10-04T15:22:56;3.90;;;2.70;;
34142;SDS011;20419;10.658;106.724;2022-10-04T15:28:09;4.50;;;2.85;;
34142;SDS011;20419;10.658;106.724;2022-10-04T15:30:45;4.45;;;2.78;;
34142;SDS011;20419;10.658;106.724;2022-10-04T15:33:19;3.78;;;2.50;;
34142;SDS011;20419;10.658;106.724;2022-10-04T15:38:27;4.35;;;2.85;;
34142;SDS011;20419;10.658;106.724;2022-10-04T15:41:12;4.95;;;3.00;;
34142;SDS011;20419;10.658;106.724;2022-10-04T15:51:39;4.53;;;2.90;;
34142;SDS011;20419;10.658;106.724;2022-10-04T16:05:28;4.05;;;2.45;;
34142;SDS011;20419;10.658;106.724;2022-10-04T16:11:02;3.95;;;2.47;;
34142;SDS011;20419;10.658;106.724;2022-10-04T16:22:10;4.07;;;2.75;;
34142;SDS011;20419;10.658;106.724;2022-10-04T16:27:43;5.20;;;2.38;;
34142;SDS011;20419;10.658;106.724;2022-10-04T16:30:12;5.13;;;2.95;;
34142;SDS011;20419;10.658;106.724;2022-10-04T16:33:02;3.85;;;2.58;;
34142;SDS011;20419;10.658;106.724;2022-10-04T16:35:32;4.60;;;2.67;;
34142;SDS011;20419;10.658;106.724;2022-10-04T16:40:34;4.13;;;2.70;;
34142;SDS011;20419;10.658;106.724;2022-10-04T16:43:46;4.70;;;2.80;;
34142;SDS011;20419;10.658;106.724;2022-10-04T17:02:22;5.40;;;2.58;;
34142;SDS011;20419;10.658;106.724;2022-10-04T17:07:51;4.22;;;2.50;;
34142;SDS011;20419;10.658;106.724;2022-10-04T17:12:54;3.50;;;2.22;;
34142;SDS011;20419;10.658;106.724;2022-10-04T17:18:00;3.97;;;2.70;;
34142;SDS011;20419;10.658;106.724;2022-10-04T17:25:59;4.00;;;2.25;;
34142;SDS011;20419;10.658;106.724;2022-10-04T17:28:54;3.85;;;2.38;;
34142;SDS011;20419;10.658;106.724;2022-10-04T17:31:27;4.75;;;2.50;;
34142;SDS011;20419;10.658;106.724;2022-10-04T17:36:36;3.80;;;2.20;;
34142;SDS011;20419;10.658;106.724;2022-10-04T17:39:09;3.90;;;2.05;;
34142;SDS011;20419;10.658;106.724;2022-10-04T17:49:44;4.45;;;2.42;;
34142;SDS011;20419;10.658;106.724;2022-10-04T17:52:39;4.60;;;2.90;;
34142;SDS011;20419;10.658;106.724;2022-10-04T17:55:32;3.28;;;2.15;;
34142;SDS011;20419;10.658;106.724;2022-10-04T18:03:18;4.63;;;2.65;;
34142;SDS011;20419;10.658;106.724;2022-10-04T18:10:50;4.78;;;2.63;;
34142;SDS011;20419;10.658;106.724;2022-10-04T18:18:47;4.22;;;2.40;;
34142;SDS011;20419;10.658;106.724;2022-10-04T18:21:33;4.68;;;2.10;;
34142;SDS011;20419;10.658;106.724;2022-10-04T18:24:01;4.43;;;2.22;;
34142;SDS011;20419;10.658;106.724;2022-10-04T18:26:59;4.88;;;2.35;;
34142;SDS011;20419;10.658;106.724;2022-10-04T18:29:36;4.60;;;2.58;;
34142;SDS011;20419;10.658;106.724;2022-10-04T18:32:49;5.88;;;2.60;;
34142;SDS011;20419;10.658;106.724;2022-10-04T18:34:55;4.47;;;2.42;;
34142;SDS011;20419;10.658;106.724;2022-10-04T18:39:55;3.83;;;2.30;;
34142;SDS011;20419;10.658;106.724;2022-10-04T18:42:29;3.35;;;2.25;;
34142;SDS011;20419;10.658;106.724;2022-10-04T18:45:03;5.47;;;2.45;;
34142;SDS011;20419;10.658;106.724;2022-10-04T18:47:38;4.78;;;2.45;;
34142;SDS011;20419;10.658;106.724;2022-10-04T18:50:14;3.15;;;1.90;;
34142;SDS011;20419;10.658;106.724;2022-10-04T18:52:50;4.20;;;2.35;;
34142;SDS011;20419;10.658;106.724;2022-10-04T18:57:52;4.13;;;2.30;;
34142;SDS011;20419;10.658;106.724;2022-10-04T19:00:39;4.07;;;2.28;;
34142;SDS011;20419;10.658;106.724;2022-10-04T19:05:57;3.65;;;1.70;;
34142;SDS011;20419;10.658;106.724;2022-10-04T19:08:40;3.20;;;1.80;;
34142;SDS011;20419;10.658;106.724;2022-10-04T19:17:52;3.88;;;2.00;;
34142;SDS011;20419;10.658;106.724;2022-10-04T19:20:22;3.90;;;2.00;;
34142;SDS011;20419;10.658;106.724;2022-10-04T19:25:44;4.57;;;2.50;;
34142;SDS011;20419;10.658;106.724;2022-10-04T19:28:21;3.97;;;2.13;;
34142;SDS011;20419;10.658;106.724;2022-10-04T19:31:13;5.82;;;2.28;;
34142;SDS011;20419;10.658;106.724;2022-10-04T19:33:51;4.70;;;2.08;;
34142;SDS011;20419;10.658;106.724;2022-10-04T19:36:22;2.95;;;1.73;;
34142;SDS011;20419;10.658;106.724;2022-10-04T19:38:54;4.65;;;2.13;;
34142;SDS011;20419;10.658;106.724;2022-10-04T19:41:45;4.40;;;2.10;;
34142;SDS011;20419;10.658;106.724;2022-10-04T19:46:58;3.47;;;1.70;;
34142;SDS011;20419;10.658;106.724;2022-10-04T19:55:26;3.15;;;1.95;;
34142;SDS011;20419;10.658;106.724;2022-10-04T19:58:00;3.60;;;1.95;;
34142;SDS011;20419;10.658;106.724;2022-10-04T20:00:30;3.20;;;2.00;;
34142;SDS011;20419;10.658;106.724;2022-10-04T20:03:00;3.92;;;1.90;;
34142;SDS011;20419;10.658;106.724;2022-10-04T20:05:27;3.30;;;1.90;;
34142;SDS011;20419;10.658;106.724;2022-10-04T20:07:55;3.22;;;1.80;;
34142;SDS011;20419;10.658;106.724;2022-10-04T20:10:30;3.63;;;1.98;;
34142;SDS011;20419;10.658;106.724;2022-10-04T20:26:08;3.67;;;1.90;;
34142;SDS011;20419;10.658;106.724;2022-10-04T20:28:36;3.83;;;2.00;;
34142;SDS011;20419;10.658;106.724;2022-10-04T20:31:05;3.90;;;2.38;;
34142;SDS011;20419;10.658;106.724;2022-10-04T20:38:42;4.03;;;1.97;;
34142;SDS011;20419;10.658;106.724;2022-10-04T20:47:38;3.97;;;2.05;;
34142;SDS011;20419;10.658;106.724;2022-10-04T20:52:43;3.50;;;1.92;;
34142;SDS011;20419;10.658;106.724;2022-10-04T20:55:20;3.28;;;1.85;;
34142;SDS011;20419;10.658;106.724;2022-10-04T20:57:54;4.70;;;1.88;;
34142;SDS011;20419;10.658;106.724;2022-10-04T21:00:29;3.45;;;1.63;;
34142;SDS011;20419;10.658;106.724;2022-10-04T21:03:12;3.53;;;1.80;;
34142;SDS011;20419;10.658;106.724;2022-10-04T21:05:40;4.55;;;2.17;;
34142;SDS011;20419;10.658;106.724;2022-10-04T21:08:10;3.38;;;1.80;;
34142;SDS011;20419;10.658;106.724;2022-10-04T21:10:37;3.67;;;1.90;;
34142;SDS011;20419;10.658;106.724;2022-10-04T21:13:04;3.67;;;1.73;;
34142;SDS011;20419;10.658;106.724;2022-10-04T21:15:31;5.43;;;2.15;;
34142;SDS011;20419;10.658;106.724;2022-10-04T21:20:41;3.35;;;1.88;;
34142;SDS011;20419;10.658;106.724;2022-10-04T21:23:31;4.05;;;1.60;;
34142;SDS011;20419;10.658;106.724;2022-10-04T21:28:41;3.60;;;1.80;;
34142;SDS011;20419;10.658;106.724;2022-10-04T21:31:08;3.05;;;1.70;;
34142;SDS011;20419;10.658;106.724;2022-10-04T21:33:35;3.92;;;2.08;;
34142;SDS011;20419;10.658;106.724;2022-10-04T21:36:02;2.70;;;1.60;;
34142;SDS011;20419;10.658;106.724;2022-10-04T21:38:30;4.60;;;1.90;;
34142;SDS011;20419;10.658;106.724;2022-10-04T21:40:57;4.85;;;2.03;;
34142;SDS011;20419;10.658;106.724;2022-10-04T21:43:24;4.82;;;1.60;;
34142;SDS011;20419;10.658;106.724;2022-10-04T21:45:51;3.88;;;1.80;;
34142;SDS011;20419;10.658;106.724;2022-10-04T21:48:18;3.13;;;1.77;;
34142;SDS011;20419;10.658;106.724;2022-10-04T21:50:48;3.20;;;1.75;;
34142;SDS011;20419;10.658;106.724;2022-10-04T21:53:15;3.67;;;1.67;;
34142;SDS011;20419;10.658;106.724;2022-10-04T21:55:42;2.95;;;1.50;;
34142;SDS011;20419;10.658;106.724;2022-10-04T21:58:09;3.50;;;1.73;;
34142;SDS011;20419;10.658;106.724;2022-10-04T22:00:36;3.65;;;1.60;;
34142;SDS011;20419;10.658;106.724;2022-10-04T22:03:03;3.28;;;1.80;;
34142;SDS011;20419;10.658;106.724;2022-10-04T22:05:30;3.45;;;1.73;;
34142;SDS011;20419;10.658;106.724;2022-10-04T22:07:57;4.95;;;1.83;;
34142;SDS011;20419;10.658;106.724;2022-10-04T22:10:24;2.97;;;1.63;;
34142;SDS011;20419;10.658;106.724;2022-10-04T22:12:51;3.38;;;1.77;;
34142;SDS011;20419;10.658;106.724;2022-10-04T22:15:21;3.28;;;1.65;;
34142;SDS011;20419;10.658;106.724;2022-10-04T22:17:48;4.10;;;1.73;;
34142;SDS011;20419;10.658;106.724;2022-10-04T22:20:15;2.83;;;1.48;;
34142;SDS011;20419;10.658;106.724;2022-10-04T22:22:42;3.42;;;1.85;;
34142;SDS011;20419;10.658;106.724;2022-10-04T22:25:13;3.45;;;1.65;;
34142;SDS011;20419;10.658;106.724;2022-10-04T22:27:40;3.15;;;1.60;;
34142;SDS011;20419;10.658;106.724;2022-10-04T22:30:10;3.65;;;1.63;;
34142;SDS011;20419;10.658;106.724;2022-10-04T22:32:42;3.90;;;1.73;;
34142;SDS011;20419;10.658;106.724;2022-10-04T22:35:14;3.07;;;1.77;;
34142;SDS011;20419;10.658;106.724;2022-10-04T22:37:41;2.83;;;1.40;;
34142;SDS011;20419;10.658;106.724;2022-10-04T22:40:19;2.90;;;1.55;;
34142;SDS011;20419;10.658;106.724;2022-10-04T22:42:50;3.67;;;1.73;;
34142;SDS011;20419;10.658;106.724;2022-10-04T22:45:21;3.55;;;1.80;;
34142;SDS011;20419;10.658;106.724;2022-10-04T22:47:49;3.45;;;1.80;;
34142;SDS011;20419;10.658;106.724;2022-10-04T22:50:27;6.57;;;2.00;;
34142;SDS011;20419;10.658;106.724;2022-10-04T22:52:54;3.40;;;1.90;;
34142;SDS011;20419;10.658;106.724;2022-10-04T22:55:21;3.88;;;1.80;;
34142;SDS011;20419;10.658;106.724;2022-10-04T22:57:48;3.17;;;1.75;;
34142;SDS011;20419;10.658;106.724;2022-10-04T23:00:15;3.00;;;1.52;;
34142;SDS011;20419;10.658;106.724;2022-10-04T23:02:42;4.40;;;1.80;;
34142;SDS011;20419;10.658;106.724;2022-10-04T23:07:40;3.35;;;1.77;;
34142;SDS011;20419;10.658;106.724;2022-10-04T23:10:07;3.80;;;2.10;;
34142;SDS011;20419;10.658;106.724;2022-10-04T23:12:34;3.35;;;1.77;;
34142;SDS011;20419;10.658;106.724;2022-10-04T23:15:02;3.83;;;1.60;;
34142;SDS011;20419;10.658;106.724;2022-10-04T23:17:35;5.80;;;2.00;;
34142;SDS011;20419;10.658;106.724;2022-10-04T23:20:05;7.50;;;2.03;;
34142;SDS011;20419;10.658;106.724;2022-10-04T23:22:33;6.10;;;2.40;;
34142;SDS011;20419;10.658;106.724;2022-10-04T23:25:00;7.55;;;1.92;;
34142;SDS011;20419;10.658;106.724;2022-10-04T23:27:27;5.90;;;2.70;;
34142;SDS011;20419;10.658;106.724;2022-10-04T23:30:00;4.95;;;2.13;;
34142;SDS011;20419;10.658;106.724;2022-10-04T23:32:28;5.78;;;2.15;;
34142;SDS011;20419;10.658;106.724;2022-10-04T23:34:57;5.07;;;2.35;;
34142;SDS011;20419;10.658;106.724;2022-10-04T23:37:25;6.50;;;2.30;;
34142;SDS011;20419;10.658;106.724;2022-10-04T23:39:53;4.72;;;2.20;;
34142;SDS011;20419;10.658;106.724;2022-10-04T23:42:20;5.88;;;2.72;;
34142;SDS011;20419;10.658;106.724;2022-10-04T23:44:53;6.03;;;2.75;;
34142;SDS011;20419;10.658;106.724;2022-10-04T23:47:21;8.60;;;2.40;;
34142;SDS011;20419;10.658;106.724;2022-10-04T23:49:49;4.53;;;2.22;;
34142;SDS011;20419;10.658;106.724;2022-10-04T23:52:33;4.80;;;2.15;;
34142;SDS011;20419;10.658;106.724;2022-10-04T23:55:01;6.03;;;2.75;;
34142;SDS011;20419;10.658;106.724;2022-10-04T23:57:28;7.93;;;2.95;;
34142;SDS011;20419;10.658;106.724;2022-10-04T23:59:57;6.20;;;2.50;;
